sensor_id;sensor_type;location;lat;lon;timestamp;P1;P2;P0
74434;PMS7003;62867;52.038;29.256;2023-09-08T00:01:07;0.3;0;0
74434;PMS7003;62867;52.038;29.256;2023-09-08T00:05:57;0;0;0
74434;PMS7003;62867;52.038;29.256;2023-09-08T00:10:57;0;0;0
74434;PMS7003;62867;52.038;29.256;2023-09-08T00:15:45;0;0;0
74434;PMS7003;62867;52.038;29.256;2023-09-08T00:21:05;0;0;0
74434;PMS7003;62867;52.038;29.256;2023-09-08T00:26:07;0.2;0.2;0
74434;PMS7003;62867;52.038;29.256;2023-09-08T00:30:51;0;0;0
74434;PMS7003;62867;52.038;29.256;2023-09-08T00:36:13;0.2;0;0
74434;PMS7003;62867;52.038;29.256;2023-09-08T00:41:22;0;0;0
74434;PMS7003;62867;52.038;29.256;2023-09-08T00:45:57;0;0;0
74434;PMS7003;62867;52.038;29.256;2023-09-08T00:51:13;0;0;0
74434;PMS7003;62867;52.038;29.256;2023-09-08T00:55:57;0;0;0
74434;PMS7003;62867;52.038;29.256;2023-09-08T01:00:51;0;0;0
74434;PMS7003;62867;52.038;29.256;2023-09-08T01:05:45;0;0;0
74434;PMS7003;62867;52.038;29.256;2023-09-08T01:11:07;0;0;0
74434;PMS7003;62867;52.038;29.256;2023-09-08T01:16:21;0.2;0;0
74434;PMS7003;62867;52.038;29.256;2023-09-08T01:20:58;0;0;0
74434;PMS7003;62867;52.038;29.256;2023-09-08T01:26:13;0.2;0.2;0
74434;PMS7003;62867;52.038;29.256;2023-09-08T01:31:21;0;0;0
74434;PMS7003;62867;52.038;29.256;2023-09-08T01:35:57;0;0;0
74434;PMS7003;62867;52.038;29.256;2023-09-08T01:40:59;0;0;0
74434;PMS7003;62867;52.038;29.256;2023-09-08T01:45:39;0;0;0
74434;PMS7003;62867;52.038;29.256;2023-09-08T01:50:46;0;0;0
74434;PMS7003;62867;52.038;29.256;2023-09-08T01:55:45;0;0;0
74434;PMS7003;62867;52.038;29.256;2023-09-08T02:00:47;0;0;0
74434;PMS7003;62867;52.038;29.256;2023-09-08T02:06:21;0;0;0
74434;PMS7003;62867;52.038;29.256;2023-09-08T02:10:45;0;0;0
74434;PMS7003;62867;52.038;29.256;2023-09-08T02:16:21;0;0;0
74434;PMS7003;62867;52.038;29.256;2023-09-08T02:21:21;0;0;0
74434;PMS7003;62867;52.038;29.256;2023-09-08T02:25:57;0;0;0
74434;PMS7003;62867;52.038;29.256;2023-09-08T02:31:21;0;0;0
74434;PMS7003;62867;52.038;29.256;2023-09-08T02:35:39;0;0;0
74434;PMS7003;62867;52.038;29.256;2023-09-08T02:41:13;0.2;0;0
74434;PMS7003;62867;52.038;29.256;2023-09-08T02:45:46;0;0;0
74434;PMS7003;62867;52.038;29.256;2023-09-08T02:50:51;0;0;0
74434;PMS7003;62867;52.038;29.256;2023-09-08T02:55:53;0;0;0
74434;PMS7003;62867;52.038;29.256;2023-09-08T03:00:55;0;0;0
74434;PMS7003;62867;52.038;29.256;2023-09-08T03:06:21;0;0;0
74434;PMS7003;62867;52.038;29.256;2023-09-08T03:11:07;0;0;0
74434;PMS7003;62867;52.038;29.256;2023-09-08T03:16:13;0.2;0;0
74434;PMS7003;62867;52.038;29.256;2023-09-08T03:21:21;0;0;0
74434;PMS7003;62867;52.038;29.256;2023-09-08T03:26:21;0;0;0
74434;PMS7003;62867;52.038;29.256;2023-09-08T03:30:39;0;0;0
74434;PMS7003;62867;52.038;29.256;2023-09-08T03:35:51;0;0;0
74434;PMS7003;62867;52.038;29.256;2023-09-08T03:40:45;0.4;0.4;0.4
74434;PMS7003;62867;52.038;29.256;2023-09-08T03:46:07;0.2;0.2;0.2
74434;PMS7003;62867;52.038;29.256;2023-09-08T03:51:07;0;0;0
74434;PMS7003;62867;52.038;29.256;2023-09-08T03:56:13;0.4;0.4;0.4
74434;PMS7003;62867;52.038;29.256;2023-09-08T04:01:07;1.3;0.8;0.8
74434;PMS7003;62867;52.038;29.256;2023-09-08T04:05:45;0.2;0.2;0.2
74434;PMS7003;62867;52.038;29.256;2023-09-08T04:11:17;0;0;0
74434;PMS7003;62867;52.038;29.256;2023-09-08T04:16:05;0.6;0.6;0.6
74434;PMS7003;62867;52.038;29.256;2023-09-08T04:20:39;0.6;0.6;0.4
74434;PMS7003;62867;52.038;29.256;2023-09-08T04:25:59;1.2;1.2;1.2
74434;PMS7003;62867;52.038;29.256;2023-09-08T04:30:39;0.4;0.4;0.2
74434;PMS7003;62867;52.038;29.256;2023-09-08T04:35:47;0.4;0.4;0.4
74434;PMS7003;62867;52.038;29.256;2023-09-08T04:41:01;1.6;1.6;1.6
74434;PMS7003;62867;52.038;29.256;2023-09-08T04:46:21;3.6;3.6;3.4
74434;PMS7003;62867;52.038;29.256;2023-09-08T04:51:07;0.8;0.8;0.6
74434;PMS7003;62867;52.038;29.256;2023-09-08T04:55:51;4.6;4.6;4.4
74434;PMS7003;62867;52.038;29.256;2023-09-08T05:01:21;3.6;3.4;3.4
74434;PMS7003;62867;52.038;29.256;2023-09-08T05:05:39;0.5;0.5;0.3
74434;PMS7003;62867;52.038;29.256;2023-09-08T05:10:55;0.2;0.2;0.2
74434;PMS7003;62867;52.038;29.256;2023-09-08T05:15:39;1.2;1.2;1
74434;PMS7003;62867;52.038;29.256;2023-09-08T05:20:51;1.2;1.2;1.2
74434;PMS7003;62867;52.038;29.256;2023-09-08T05:26:07;0.2;0.2;0.2
74434;PMS7003;62867;52.038;29.256;2023-09-08T05:31:07;0.2;0.2;0.2
74434;PMS7003;62867;52.038;29.256;2023-09-08T05:36:21;1;1;1
74434;PMS7003;62867;52.038;29.256;2023-09-08T05:41:07;0.4;0.4;0.4
74434;PMS7003;62867;52.038;29.256;2023-09-08T05:45:39;0;0;0
74434;PMS7003;62867;52.038;29.256;2023-09-08T05:51:21;0.2;0.2;0.2
74434;PMS7003;62867;52.038;29.256;2023-09-08T05:55:45;1.4;1.4;1.4
74434;PMS7003;62867;52.038;29.256;2023-09-08T06:00:39;1.6;1.4;1.4
74434;PMS7003;62867;52.038;29.256;2023-09-08T06:05:45;1.5;1.5;1.5
74434;PMS7003;62867;52.038;29.256;2023-09-08T06:10:51;0.4;0.4;0.4
74434;PMS7003;62867;52.038;29.256;2023-09-08T06:16:07;0;0;0
74434;PMS7003;62867;52.038;29.256;2023-09-08T06:21:07;0;0;0
74434;PMS7003;62867;52.038;29.256;2023-09-08T06:26:21;0;0;0
74434;PMS7003;62867;52.038;29.256;2023-09-08T06:31:21;0;0;0
74434;PMS7003;62867;52.038;29.256;2023-09-08T06:36:05;0;0;0
74434;PMS7003;62867;52.038;29.256;2023-09-08T06:41:21;0;0;0
74434;PMS7003;62867;52.038;29.256;2023-09-08T06:45:39;0;0;0
74434;PMS7003;62867;52.038;29.256;2023-09-08T06:50:39;0;0;0
74434;PMS7003;62867;52.038;29.256;2023-09-08T06:56:21;0;0;0
74434;PMS7003;62867;52.038;29.256;2023-09-08T07:00:51;0;0;0
74434;PMS7003;62867;52.038;29.256;2023-09-08T07:06:21;0;0;0
74434;PMS7003;62867;52.038;29.256;2023-09-08T07:11:07;0;0;0
74434;PMS7003;62867;52.038;29.256;2023-09-08T07:15:59;0;0;0
74434;PMS7003;62867;52.038;29.256;2023-09-08T07:21:21;0.2;0;0
74434;PMS7003;62867;52.038;29.256;2023-09-08T07:26:15;0.4;0;0
74434;PMS7003;62867;52.038;29.256;2023-09-08T07:31:21;0;0;0
74434;PMS7003;62867;52.038;29.256;2023-09-08T07:35:39;0;0;0
74434;PMS7003;62867;52.038;29.256;2023-09-08T07:40:39;0;0;0
74434;PMS7003;62867;52.038;29.256;2023-09-08T07:45:53;0;0;0
74434;PMS7003;62867;52.038;29.256;2023-09-08T07:51:15;0;0;0
74434;PMS7003;62867;52.038;29.256;2023-09-08T07:56:21;0;0;0
74434;PMS7003;62867;52.038;29.256;2023-09-08T08:01:07;0;0;0
74434;PMS7003;62867;52.038;29.256;2023-09-08T08:05:53;0;0;0
74434;PMS7003;62867;52.038;29.256;2023-09-08T08:11:21;0.4;0.4;0.4
74434;PMS7003;62867;52.038;29.256;2023-09-08T08:16:13;0;0;0
74434;PMS7003;62867;52.038;29.256;2023-09-08T08:21:21;0.2;0.2;0
74434;PMS7003;62867;52.038;29.256;2023-09-08T08:25:39;1;1;0.6
74434;PMS7003;62867;52.038;29.256;2023-09-08T08:31:21;1.8;1.8;0
74434;PMS7003;62867;52.038;29.256;2023-09-08T08:36:21;1.4;1.4;0
74434;PMS7003;62867;52.038;29.256;2023-09-08T08:40:39;2.2;1.6;0
74434;PMS7003;62867;52.038;29.256;2023-09-08T08:46:05;0.8;0.8;0
74434;PMS7003;62867;52.038;29.256;2023-09-08T08:51:08;1.4;1.4;0
74434;PMS7003;62867;52.038;29.256;2023-09-08T08:55:53;1.2;1.2;0
74434;PMS7003;62867;52.038;29.256;2023-09-08T09:00:57;0.4;0.4;0
74434;PMS7003;62867;52.038;29.256;2023-09-08T09:05:41;0;0;0
74434;PMS7003;62867;52.038;29.256;2023-09-08T09:11:21;0.4;0.4;0
74434;PMS7003;62867;52.038;29.256;2023-09-08T09:15:39;0;0;0
74434;PMS7003;62867;52.038;29.256;2023-09-08T09:20:40;0.4;0.2;0
74434;PMS7003;62867;52.038;29.256;2023-09-08T09:26:23;0;0;0
74434;PMS7003;62867;52.038;29.256;2023-09-08T09:31:05;0;0;0
74434;PMS7003;62867;52.038;29.256;2023-09-08T09:36:21;0;0;0
74434;PMS7003;62867;52.038;29.256;2023-09-08T09:41:07;0;0;0
74434;PMS7003;62867;52.038;29.256;2023-09-08T09:45:59;0;0;0
74434;PMS7003;62867;52.038;29.256;2023-09-08T09:51:19;0.2;0.2;0
74434;PMS7003;62867;52.038;29.256;2023-09-08T09:56:05;0;0;0
74434;PMS7003;62867;52.038;29.256;2023-09-08T10:01:22;0;0;0
74434;PMS7003;62867;52.038;29.256;2023-09-08T10:05:39;0;0;0
74434;PMS7003;62867;52.038;29.256;2023-09-08T10:10:39;0;0;0
74434;PMS7003;62867;52.038;29.256;2023-09-08T10:16:21;0.4;0;0
74434;PMS7003;62867;52.038;29.256;2023-09-08T10:20:39;0.4;0;0
74434;PMS7003;62867;52.038;29.256;2023-09-08T10:26:22;0;0;0
74434;PMS7003;62867;52.038;29.256;2023-09-08T10:31:07;0;0;0
74434;PMS7003;62867;52.038;29.256;2023-09-08T10:35:59;0;0;0
74434;PMS7003;62867;52.038;29.256;2023-09-08T10:41:25;0;0;0
74434;PMS7003;62867;52.038;29.256;2023-09-08T10:46:08;0;0;0
74434;PMS7003;62867;52.038;29.256;2023-09-08T10:50:51;0;0;0
74434;PMS7003;62867;52.038;29.256;2023-09-08T10:55:40;0;0;0
74434;PMS7003;62867;52.038;29.256;2023-09-08T11:00:51;0;0;0
74434;PMS7003;62867;52.038;29.256;2023-09-08T11:06:21;0;0;0
74434;PMS7003;62867;52.038;29.256;2023-09-08T11:10:51;0;0;0
74434;PMS7003;62867;52.038;29.256;2023-09-08T11:15:59;0.2;0;0
74434;PMS7003;62867;52.038;29.256;2023-09-08T11:21:08;0;0;0
74434;PMS7003;62867;52.038;29.256;2023-09-08T11:25:53;0.4;0;0
74434;PMS7003;62867;52.038;29.256;2023-09-08T11:31:21;0.2;0;0
74434;PMS7003;62867;52.038;29.256;2023-09-08T11:35:48;0.2;0;0
74434;PMS7003;62867;52.038;29.256;2023-09-08T11:40:51;0.8;0;0
74434;PMS7003;62867;52.038;29.256;2023-09-08T11:45:39;0;0;0
74434;PMS7003;62867;52.038;29.256;2023-09-08T11:50:40;0.2;0;0
74434;PMS7003;62867;52.038;29.256;2023-09-08T11:56:05;0;0;0
74434;PMS7003;62867;52.038;29.256;2023-09-08T12:00:51;0;0;0
74434;PMS7003;62867;52.038;29.256;2023-09-08T12:05:59;0.4;0.2;0
74434;PMS7003;62867;52.038;29.256;2023-09-08T12:11:07;0;0;0
74434;PMS7003;62867;52.038;29.256;2023-09-08T12:15:59;0;0;0
74434;PMS7003;62867;52.038;29.256;2023-09-08T12:21:21;0;0;0
74434;PMS7003;62867;52.038;29.256;2023-09-08T12:26:05;0;0;0
74434;PMS7003;62867;52.038;29.256;2023-09-08T12:30:51;0;0;0
74434;PMS7003;62867;52.038;29.256;2023-09-08T12:35:59;0.6;0.4;0
74434;PMS7003;62867;52.038;29.256;2023-09-08T12:40:51;0.4;0.4;0
74434;PMS7003;62867;52.038;29.256;2023-09-08T12:46:21;0.2;0.2;0
74434;PMS7003;62867;52.038;29.256;2023-09-08T12:50:46;0.2;0;0
74434;PMS7003;62867;52.038;29.256;2023-09-08T12:55:59;0;0;0
74434;PMS7003;62867;52.038;29.256;2023-09-08T13:01:07;0.4;0;0
74434;PMS7003;62867;52.038;29.256;2023-09-08T13:05:59;0;0;0
74434;PMS7003;62867;52.038;29.256;2023-09-08T13:11:09;0;0;0
74434;PMS7003;62867;52.038;29.256;2023-09-08T13:15:41;1;1;0
74434;PMS7003;62867;52.038;29.256;2023-09-08T13:20:57;1;1;0
74434;PMS7003;62867;52.038;29.256;2023-09-08T13:25:39;1.2;1.2;0
74434;PMS7003;62867;52.038;29.256;2023-09-08T13:30:39;3.6;3.4;1
74434;PMS7003;62867;52.038;29.256;2023-09-08T13:36:21;0.2;0.2;0
74434;PMS7003;62867;52.038;29.256;2023-09-08T13:41:21;0;0;0
74434;PMS7003;62867;52.038;29.256;2023-09-08T13:45:53;0;0;0
74434;PMS7003;62867;52.038;29.256;2023-09-08T13:51:07;0;0;0
74434;PMS7003;62867;52.038;29.256;2023-09-08T13:55:59;0;0;0
74434;PMS7003;62867;52.038;29.256;2023-09-08T14:01:21;0;0;0
74434;PMS7003;62867;52.038;29.256;2023-09-08T14:06:05;0;0;0
74434;PMS7003;62867;52.038;29.256;2023-09-08T14:10:39;0;0;0
74434;PMS7003;62867;52.038;29.256;2023-09-08T14:15:59;0;0;0
74434;PMS7003;62867;52.038;29.256;2023-09-08T14:21:13;0;0;0
74434;PMS7003;62867;52.038;29.256;2023-09-08T14:26:23;0.6;0.2;0.2
74434;PMS7003;62867;52.038;29.256;2023-09-08T14:30:53;2.2;2;1.6
74434;PMS7003;62867;52.038;29.256;2023-09-08T14:35:41;24.6;22;13.6
74434;PMS7003;62867;52.038;29.256;2023-09-08T14:41:09;27.2;25.2;14.6
74434;PMS7003;62867;52.038;29.256;2023-09-08T14:45:59;15.2;14.2;7.8
74434;PMS7003;62867;52.038;29.256;2023-09-08T14:51:23;4.4;4.4;2.2
74434;PMS7003;62867;52.038;29.256;2023-09-08T14:56:07;6.8;5.2;3.4
74434;PMS7003;62867;52.038;29.256;2023-09-08T15:00:57;11.8;11.6;6.4
74434;PMS7003;62867;52.038;29.256;2023-09-08T15:05:45;11;9.8;6
74434;PMS7003;62867;52.038;29.256;2023-09-08T15:11:23;14.6;12.6;7.6
74434;PMS7003;62867;52.038;29.256;2023-09-08T15:16:07;9.8;9;5
74434;PMS7003;62867;52.038;29.256;2023-09-08T15:21:23;3.6;3.6;2.4
74434;PMS7003;62867;52.038;29.256;2023-09-08T15:25:59;2.6;2;1
74434;PMS7003;62867;52.038;29.256;2023-09-08T15:30:55;1;1;0.6
74434;PMS7003;62867;52.038;29.256;2023-09-08T15:36:11;0.2;0;0
74434;PMS7003;62867;52.038;29.256;2023-09-08T15:41:15;0;0;0
74434;PMS7003;62867;52.038;29.256;2023-09-08T15:46:23;0;0;0
74434;PMS7003;62867;52.038;29.256;2023-09-08T15:50:55;0.2;0.2;0
74434;PMS7003;62867;52.038;29.256;2023-09-08T15:55:39;0.4;0.4;0.4
74434;PMS7003;62867;52.038;29.256;2023-09-08T16:01:23;0.8;0.8;0.2
74434;PMS7003;62867;52.038;29.256;2023-09-08T16:06:07;1;0;0
74434;PMS7003;62867;52.038;29.256;2023-09-08T16:11:21;1;1;0.4
74434;PMS7003;62867;52.038;29.256;2023-09-08T16:15:59;1.5;1.3;1.3
74434;PMS7003;62867;52.038;29.256;2023-09-08T16:21:13;1.6;1.6;1.2
74434;PMS7003;62867;52.038;29.256;2023-09-08T16:26:23;1;1;0.6
74434;PMS7003;62867;52.038;29.256;2023-09-08T16:31:02;0.6;0.6;0.6
74434;PMS7003;62867;52.038;29.256;2023-09-08T16:36:03;0;0;0
74434;PMS7003;62867;52.038;29.256;2023-09-08T16:40:39;0.2;0;0
74434;PMS7003;62867;52.038;29.256;2023-09-08T16:45:51;0;0;0
74434;PMS7003;62867;52.038;29.256;2023-09-08T16:51:16;0;0;0
74434;PMS7003;62867;52.038;29.256;2023-09-08T16:56:07;0.2;0.2;0
74434;PMS7003;62867;52.038;29.256;2023-09-08T17:01:23;0.8;0.6;0.2
74434;PMS7003;62867;52.038;29.256;2023-09-08T17:05:51;1.4;1.4;0.6
74434;PMS7003;62867;52.038;29.256;2023-09-08T17:11:13;3.6;2.6;1.8
74434;PMS7003;62867;52.038;29.256;2023-09-08T17:16:23;4.3;3;2.3
74434;PMS7003;62867;52.038;29.256;2023-09-08T17:20:39;5;4.8;2.8
74434;PMS7003;62867;52.038;29.256;2023-09-08T17:26:23;4.4;3.4;2.6
74434;PMS7003;62867;52.038;29.256;2023-09-08T17:30:39;3;3;2.6
74434;PMS7003;62867;52.038;29.256;2023-09-08T17:35:46;3.2;3.2;2.8
74434;PMS7003;62867;52.038;29.256;2023-09-08T17:41:09;1.8;1.8;1.2
74434;PMS7003;62867;52.038;29.256;2023-09-08T17:46:07;3;2.4;1.8
74434;PMS7003;62867;52.038;29.256;2023-09-08T17:51:07;1.6;0.8;0.6
74434;PMS7003;62867;52.038;29.256;2023-09-08T17:55:49;1.2;1;0.6
74434;PMS7003;62867;52.038;29.256;2023-09-08T18:01:12;2.6;2.6;2
74434;PMS7003;62867;52.038;29.256;2023-09-08T18:06:21;1.4;1.2;1
74434;PMS7003;62867;52.038;29.256;2023-09-08T18:11:21;1.8;1.4;1.4
74434;PMS7003;62867;52.038;29.256;2023-09-08T18:15:47;0;0;0
74434;PMS7003;62867;52.038;29.256;2023-09-08T18:21:07;0.6;0.4;0.4
74434;PMS7003;62867;52.038;29.256;2023-09-08T18:25:57;2.6;2;2
74434;PMS7003;62867;52.038;29.256;2023-09-08T18:31:21;0.4;0.2;0
74434;PMS7003;62867;52.038;29.256;2023-09-08T18:36:07;0;0;0
74434;PMS7003;62867;52.038;29.256;2023-09-08T18:41:13;0.8;0.6;0.6
74434;PMS7003;62867;52.038;29.256;2023-09-08T18:45:53;0;0;0
74434;PMS7003;62867;52.038;29.256;2023-09-08T18:51:15;1.2;1.2;1.2
74434;PMS7003;62867;52.038;29.256;2023-09-08T18:56:25;1.2;1.2;1.2
74434;PMS7003;62867;52.038;29.256;2023-09-08T19:00:49;1.2;1.2;1
74434;PMS7003;62867;52.038;29.256;2023-09-08T19:06:25;1.4;1.4;1.4
74434;PMS7003;62867;52.038;29.256;2023-09-08T19:10:45;0.2;0.2;0.2
74434;PMS7003;62867;52.038;29.256;2023-09-08T19:16:01;2.5;2;1.5
74434;PMS7003;62867;52.038;29.256;2023-09-08T19:21:26;8.8;8.8;6.4
74434;PMS7003;62867;52.038;29.256;2023-09-08T19:26:08;11.6;11.4;8.4
74434;PMS7003;62867;52.038;29.256;2023-09-08T19:31:27;6.6;6;4.4
74434;PMS7003;62867;52.038;29.256;2023-09-08T19:36:05;3;3;1.8
74434;PMS7003;62867;52.038;29.256;2023-09-08T19:40:41;1.4;1.4;1.2
74434;PMS7003;62867;52.038;29.256;2023-09-08T19:46:25;0.8;0.8;0.6
74434;PMS7003;62867;52.038;29.256;2023-09-08T19:51:07;0;0;0
74434;PMS7003;62867;52.038;29.256;2023-09-08T19:55:39;0.2;0.2;0.2
74434;PMS7003;62867;52.038;29.256;2023-09-08T20:00:47;1.4;1.4;1
74434;PMS7003;62867;52.038;29.256;2023-09-08T20:06:14;3;3;2.8
74434;PMS7003;62867;52.038;29.256;2023-09-08T20:11:11;1;0.8;0.6
74434;PMS7003;62867;52.038;29.256;2023-09-08T20:16:07;0;0;0
74434;PMS7003;62867;52.038;29.256;2023-09-08T20:21:17;0;0;0
74434;PMS7003;62867;52.038;29.256;2023-09-08T20:26:11;0.4;0.4;0
74434;PMS7003;62867;52.038;29.256;2023-09-08T20:31:15;0;0;0
74434;PMS7003;62867;52.038;29.256;2023-09-08T20:36:23;0;0;0
74434;PMS7003;62867;52.038;29.256;2023-09-08T20:40:43;0;0;0
74434;PMS7003;62867;52.038;29.256;2023-09-08T20:45:56;0;0;0
74434;PMS7003;62867;52.038;29.256;2023-09-08T20:50:47;0.2;0;0
74434;PMS7003;62867;52.038;29.256;2023-09-08T20:56:02;0;0;0
74434;PMS7003;62867;52.038;29.256;2023-09-08T21:01:25;0;0;0
74434;PMS7003;62867;52.038;29.256;2023-09-08T21:05:41;0.6;0.2;0.2
74434;PMS7003;62867;52.038;29.256;2023-09-08T21:10:47;0.4;0.4;0.4
74434;PMS7003;62867;52.038;29.256;2023-09-08T21:16:01;0.2;0.2;0.2
74434;PMS7003;62867;52.038;29.256;2023-09-08T21:21:13;0.3;0.3;0.3
74434;PMS7003;62867;52.038;29.256;2023-09-08T21:26:25;0;0;0
74434;PMS7003;62867;52.038;29.256;2023-09-08T21:30:45;0;0;0
74434;PMS7003;62867;52.038;29.256;2023-09-08T21:35:39;0;0;0
74434;PMS7003;62867;52.038;29.256;2023-09-08T21:40:45;0;0;0
74434;PMS7003;62867;52.038;29.256;2023-09-08T21:45:39;1.4;1.4;1.4
74434;PMS7003;62867;52.038;29.256;2023-09-08T21:51:25;4.6;4.6;4.6
74434;PMS7003;62867;52.038;29.256;2023-09-08T21:56:08;2.8;2.8;2.2
74434;PMS7003;62867;52.038;29.256;2023-09-08T22:01:15;2;2;1.8
74434;PMS7003;62867;52.038;29.256;2023-09-08T22:06:01;2.4;2.4;2.2
74434;PMS7003;62867;52.038;29.256;2023-09-08T22:11:15;4.6;4.6;4.4
74434;PMS7003;62867;52.038;29.256;2023-09-08T22:16:25;2.4;2;2
74434;PMS7003;62867;52.038;29.256;2023-09-08T22:20:39;1.3;1.3;1
74434;PMS7003;62867;52.038;29.256;2023-09-08T22:26:15;0.6;0.2;0.2
74434;PMS7003;62867;52.038;29.256;2023-09-08T22:31:11;1.2;1.2;1
74434;PMS7003;62867;52.038;29.256;2023-09-08T22:36:01;3.8;3.8;3.4
74434;PMS7003;62867;52.038;29.256;2023-09-08T22:41:25;0.4;0.4;0.2
74434;PMS7003;62867;52.038;29.256;2023-09-08T22:46:07;1;0.8;0.4
74434;PMS7003;62867;52.038;29.256;2023-09-08T22:51:04;1;1;0.6
74434;PMS7003;62867;52.038;29.256;2023-09-08T22:56:01;1.6;1.2;0.4
74434;PMS7003;62867;52.038;29.256;2023-09-08T23:01:15;2;2;1.8
74434;PMS7003;62867;52.038;29.256;2023-09-08T23:06:25;0.6;0.6;0.4
74434;PMS7003;62867;52.038;29.256;2023-09-08T23:10:39;2;1.8;1
74434;PMS7003;62867;52.038;29.256;2023-09-08T23:15:45;1.8;1.8;1.2
74434;PMS7003;62867;52.038;29.256;2023-09-08T23:20:47;1.8;1.5;1
74434;PMS7003;62867;52.038;29.256;2023-09-08T23:25:59;1.8;1.4;1.2
74434;PMS7003;62867;52.038;29.256;2023-09-08T23:31:25;2.4;1.8;1
74434;PMS7003;62867;52.038;29.256;2023-09-08T23:36:23;1.6;1.6;1.4
74434;PMS7003;62867;52.038;29.256;2023-09-08T23:41:14;1.6;1.6;1.2
74434;PMS7003;62867;52.038;29.256;2023-09-08T23:46:03;1;1;0.6
74434;PMS7003;62867;52.038;29.256;2023-09-08T23:51:15;2;0.8;0.6
74434;PMS7003;62867;52.038;29.256;2023-09-08T23:56:25;0.8;0.8;0.2
